sensor_id;sensor_type;location;lat;lon;timestamp;temperature;humidity
1978;DHT22;989;53.016;8.346;2022-07-22T00:01:12;15.50;99.90
1978;DHT22;989;53.016;8.346;2022-07-22T00:03:38;15.50;99.90
1978;DHT22;989;53.016;8.346;2022-07-22T00:06:04;15.40;99.90
1978;DHT22;989;53.016;8.346;2022-07-22T00:08:30;15.50;99.90
1978;DHT22;989;53.016;8.346;2022-07-22T00:10:56;15.40;99.90
1978;DHT22;989;53.016;8.346;2022-07-22T00:13:22;15.40;99.90
1978;DHT22;989;53.016;8.346;2022-07-22T00:15:49;15.40;99.90
1978;DHT22;989;53.016;8.346;2022-07-22T00:18:15;15.40;99.90
1978;DHT22;989;53.016;8.346;2022-07-22T00:20:41;15.30;99.90
1978;DHT22;989;53.016;8.346;2022-07-22T00:23:08;15.30;99.90
1978;DHT22;989;53.016;8.346;2022-07-22T00:25:34;15.20;99.90
1978;DHT22;989;53.016;8.346;2022-07-22T00:28:01;15.20;99.90
1978;DHT22;989;53.016;8.346;2022-07-22T00:30:27;15.20;99.90
1978;DHT22;989;53.016;8.346;2022-07-22T00:32:53;15.10;99.90
1978;DHT22;989;53.016;8.346;2022-07-22T00:35:19;15.20;99.90
1978;DHT22;989;53.016;8.346;2022-07-22T00:37:45;15.10;99.90
1978;DHT22;989;53.016;8.346;2022-07-22T00:40:11;15.10;99.90
1978;DHT22;989;53.016;8.346;2022-07-22T00:42:37;15.10;99.90
1978;DHT22;989;53.016;8.346;2022-07-22T00:45:04;15.10;99.90
1978;DHT22;989;53.016;8.346;2022-07-22T00:47:31;15.10;99.90
1978;DHT22;989;53.016;8.346;2022-07-22T00:49:57;15.20;99.90
1978;DHT22;989;53.016;8.346;2022-07-22T00:52:23;15.10;99.90
1978;DHT22;989;53.016;8.346;2022-07-22T00:54:50;15.10;99.90
1978;DHT22;989;53.016;8.346;2022-07-22T00:57:16;15.10;99.90
1978;DHT22;989;53.016;8.346;2022-07-22T00:59:43;15.10;99.90
1978;DHT22;989;53.016;8.346;2022-07-22T01:02:09;15.10;99.90
1978;DHT22;989;53.016;8.346;2022-07-22T01:04:36;15.10;99.90
1978;DHT22;989;53.016;8.346;2022-07-22T01:07:02;15.10;99.90
1978;DHT22;989;53.016;8.346;2022-07-22T01:09:29;15.10;99.90
1978;DHT22;989;53.016;8.346;2022-07-22T01:11:55;15.10;99.90
1978;DHT22;989;53.016;8.346;2022-07-22T01:14:21;15.10;99.90
1978;DHT22;989;53.016;8.346;2022-07-22T01:16:47;15.00;99.90
1978;DHT22;989;53.016;8.346;2022-07-22T01:19:13;15.00;99.90
1978;DHT22;989;53.016;8.346;2022-07-22T01:21:39;15.00;99.90
1978;DHT22;989;53.016;8.346;2022-07-22T01:24:06;14.90;99.90
1978;DHT22;989;53.016;8.346;2022-07-22T01:26:32;14.90;99.90
1978;DHT22;989;53.016;8.346;2022-07-22T01:28:59;14.90;99.90
1978;DHT22;989;53.016;8.346;2022-07-22T01:31:25;14.90;99.90
1978;DHT22;989;53.016;8.346;2022-07-22T01:33:51;14.90;99.90
1978;DHT22;989;53.016;8.346;2022-07-22T01:36:18;14.90;99.90
1978;DHT22;989;53.016;8.346;2022-07-22T01:38:44;14.90;99.90
1978;DHT22;989;53.016;8.346;2022-07-22T01:41:10;14.90;99.90
1978;DHT22;989;53.016;8.346;2022-07-22T01:43:36;14.90;99.90
1978;DHT22;989;53.016;8.346;2022-07-22T01:46:02;14.90;99.90
1978;DHT22;989;53.016;8.346;2022-07-22T01:48:29;14.90;99.90
1978;DHT22;989;53.016;8.346;2022-07-22T01:50:55;14.90;99.90
1978;DHT22;989;53.016;8.346;2022-07-22T01:53:21;14.90;99.90
1978;DHT22;989;53.016;8.346;2022-07-22T01:55:47;14.90;99.90
1978;DHT22;989;53.016;8.346;2022-07-22T01:58:14;14.90;99.90
1978;DHT22;989;53.016;8.346;2022-07-22T02:00:40;14.90;99.90
1978;DHT22;989;53.016;8.346;2022-07-22T02:03:06;14.90;99.90
1978;DHT22;989;53.016;8.346;2022-07-22T02:05:33;14.90;99.90
1978;DHT22;989;53.016;8.346;2022-07-22T02:08:04;14.90;99.90
1978;DHT22;989;53.016;8.346;2022-07-22T02:10:31;14.90;99.90
1978;DHT22;989;53.016;8.346;2022-07-22T02:12:58;14.90;99.90
1978;DHT22;989;53.016;8.346;2022-07-22T02:15:25;14.90;99.90
1978;DHT22;989;53.016;8.346;2022-07-22T02:17:53;14.90;99.90
1978;DHT22;989;53.016;8.346;2022-07-22T02:20:19;14.90;99.90
1978;DHT22;989;53.016;8.346;2022-07-22T02:22:46;14.90;99.90
1978;DHT22;989;53.016;8.346;2022-07-22T02:25:12;14.90;99.90
1978;DHT22;989;53.016;8.346;2022-07-22T02:27:39;14.90;99.90
1978;DHT22;989;53.016;8.346;2022-07-22T02:30:06;14.90;99.90
1978;DHT22;989;53.016;8.346;2022-07-22T02:32:33;14.80;99.90
1978;DHT22;989;53.016;8.346;2022-07-22T02:34:59;14.90;99.90
1978;DHT22;989;53.016;8.346;2022-07-22T02:37:25;14.90;99.90
1978;DHT22;989;53.016;8.346;2022-07-22T02:39:51;14.90;99.90
1978;DHT22;989;53.016;8.346;2022-07-22T02:42:17;14.90;99.90
1978;DHT22;989;53.016;8.346;2022-07-22T02:44:43;14.90;99.90
1978;DHT22;989;53.016;8.346;2022-07-22T02:47:09;14.90;99.90
1978;DHT22;989;53.016;8.346;2022-07-22T02:49:35;14.80;99.90
1978;DHT22;989;53.016;8.346;2022-07-22T02:52:01;14.90;99.90
1978;DHT22;989;53.016;8.346;2022-07-22T02:54:27;14.80;99.90
1978;DHT22;989;53.016;8.346;2022-07-22T02:56:53;14.70;99.90
1978;DHT22;989;53.016;8.346;2022-07-22T02:59:19;14.70;99.90
1978;DHT22;989;53.016;8.346;2022-07-22T03:01:45;14.80;99.90
1978;DHT22;989;53.016;8.346;2022-07-22T03:04:11;14.70;99.90
1978;DHT22;989;53.016;8.346;2022-07-22T03:06:37;14.80;99.90
1978;DHT22;989;53.016;8.346;2022-07-22T03:09:03;14.70;99.90
1978;DHT22;989;53.016;8.346;2022-07-22T03:11:30;14.70;99.90
1978;DHT22;989;53.016;8.346;2022-07-22T03:13:56;14.70;99.90
1978;DHT22;989;53.016;8.346;2022-07-22T03:16:22;14.70;99.90
1978;DHT22;989;53.016;8.346;2022-07-22T03:18:48;14.70;99.90
1978;DHT22;989;53.016;8.346;2022-07-22T03:21:14;14.70;99.90
1978;DHT22;989;53.016;8.346;2022-07-22T03:23:41;14.70;99.90
1978;DHT22;989;53.016;8.346;2022-07-22T03:26:07;14.70;99.90
1978;DHT22;989;53.016;8.346;2022-07-22T03:28:33;14.70;99.90
1978;DHT22;989;53.016;8.346;2022-07-22T03:30:59;14.70;99.90
1978;DHT22;989;53.016;8.346;2022-07-22T03:33:25;14.70;99.90
1978;DHT22;989;53.016;8.346;2022-07-22T03:35:51;14.70;99.90
1978;DHT22;989;53.016;8.346;2022-07-22T03:38:17;14.60;99.90
1978;DHT22;989;53.016;8.346;2022-07-22T03:40:43;14.70;99.90
1978;DHT22;989;53.016;8.346;2022-07-22T03:43:09;14.60;99.90
1978;DHT22;989;53.016;8.346;2022-07-22T03:45:35;14.60;99.90
1978;DHT22;989;53.016;8.346;2022-07-22T03:48:01;14.60;99.90
1978;DHT22;989;53.016;8.346;2022-07-22T03:50:27;14.70;99.90
1978;DHT22;989;53.016;8.346;2022-07-22T03:52:53;14.60;99.90
1978;DHT22;989;53.016;8.346;2022-07-22T03:55:20;14.70;99.90
1978;DHT22;989;53.016;8.346;2022-07-22T03:57:46;14.60;99.90
1978;DHT22;989;53.016;8.346;2022-07-22T04:00:12;14.70;99.90
1978;DHT22;989;53.016;8.346;2022-07-22T04:02:38;14.70;99.90
1978;DHT22;989;53.016;8.346;2022-07-22T04:05:05;14.70;99.90
1978;DHT22;989;53.016;8.346;2022-07-22T04:07:31;14.70;99.90
1978;DHT22;989;53.016;8.346;2022-07-22T04:09:57;14.80;99.90
1978;DHT22;989;53.016;8.346;2022-07-22T04:12:38;14.80;99.90
1978;DHT22;989;53.016;8.346;2022-07-22T04:15:06;14.80;99.90
1978;DHT22;989;53.016;8.346;2022-07-22T04:17:33;14.80;99.90
1978;DHT22;989;53.016;8.346;2022-07-22T04:19:59;14.90;99.90
1978;DHT22;989;53.016;8.346;2022-07-22T04:22:29;14.80;99.90
1978;DHT22;989;53.016;8.346;2022-07-22T04:24:55;14.90;99.90
1978;DHT22;989;53.016;8.346;2022-07-22T04:27:22;14.90;99.90
1978;DHT22;989;53.016;8.346;2022-07-22T04:29:49;14.80;99.90
1978;DHT22;989;53.016;8.346;2022-07-22T04:32:15;14.80;99.90
1978;DHT22;989;53.016;8.346;2022-07-22T04:34:41;14.90;99.90
1978;DHT22;989;53.016;8.346;2022-07-22T04:37:07;14.90;99.90
1978;DHT22;989;53.016;8.346;2022-07-22T04:39:34;14.90;99.90
1978;DHT22;989;53.016;8.346;2022-07-22T04:42:00;15.00;99.90
1978;DHT22;989;53.016;8.346;2022-07-22T04:44:26;14.90;99.90
1978;DHT22;989;53.016;8.346;2022-07-22T04:46:52;14.90;99.90
1978;DHT22;989;53.016;8.346;2022-07-22T04:49:18;15.00;99.90
1978;DHT22;989;53.016;8.346;2022-07-22T04:51:44;15.00;99.90
1978;DHT22;989;53.016;8.346;2022-07-22T04:54:10;15.00;99.90
1978;DHT22;989;53.016;8.346;2022-07-22T04:56:36;14.90;99.90
1978;DHT22;989;53.016;8.346;2022-07-22T04:59:02;15.00;99.90
1978;DHT22;989;53.016;8.346;2022-07-22T05:01:28;15.00;99.90
1978;DHT22;989;53.016;8.346;2022-07-22T05:03:54;15.00;99.90
1978;DHT22;989;53.016;8.346;2022-07-22T05:06:20;15.00;99.90
1978;DHT22;989;53.016;8.346;2022-07-22T05:08:46;15.10;99.90
1978;DHT22;989;53.016;8.346;2022-07-22T05:11:12;15.20;99.90
1978;DHT22;989;53.016;8.346;2022-07-22T05:13:39;15.20;99.90
1978;DHT22;989;53.016;8.346;2022-07-22T05:16:05;15.20;99.90
1978;DHT22;989;53.016;8.346;2022-07-22T05:18:32;15.30;99.90
1978;DHT22;989;53.016;8.346;2022-07-22T05:20:58;15.40;99.90
1978;DHT22;989;53.016;8.346;2022-07-22T05:23:24;15.40;99.90
1978;DHT22;989;53.016;8.346;2022-07-22T05:25:50;15.40;99.90
1978;DHT22;989;53.016;8.346;2022-07-22T05:28:16;15.50;99.90
1978;DHT22;989;53.016;8.346;2022-07-22T05:30:42;15.60;99.90
1978;DHT22;989;53.016;8.346;2022-07-22T05:33:08;15.60;99.10
1978;DHT22;989;53.016;8.346;2022-07-22T05:35:34;15.60;95.70
1978;DHT22;989;53.016;8.346;2022-07-22T05:38:00;15.60;95.90
1978;DHT22;989;53.016;8.346;2022-07-22T05:40:26;15.60;96.20
1978;DHT22;989;53.016;8.346;2022-07-22T05:42:52;15.70;93.80
1978;DHT22;989;53.016;8.346;2022-07-22T05:45:18;15.70;94.30
1978;DHT22;989;53.016;8.346;2022-07-22T05:47:44;15.70;92.90
1978;DHT22;989;53.016;8.346;2022-07-22T05:50:10;15.90;91.30
1978;DHT22;989;53.016;8.346;2022-07-22T05:52:37;16.00;91.10
1978;DHT22;989;53.016;8.346;2022-07-22T05:55:05;16.10;86.80
1978;DHT22;989;53.016;8.346;2022-07-22T05:57:31;16.10;85.80
1978;DHT22;989;53.016;8.346;2022-07-22T05:59:57;16.00;87.10
1978;DHT22;989;53.016;8.346;2022-07-22T06:02:24;16.00;82.70
1978;DHT22;989;53.016;8.346;2022-07-22T06:04:50;15.90;79.70
1978;DHT22;989;53.016;8.346;2022-07-22T06:07:16;16.00;82.50
1978;DHT22;989;53.016;8.346;2022-07-22T06:09:43;16.00;81.40
1978;DHT22;989;53.016;8.346;2022-07-22T06:12:09;16.00;80.40
1978;DHT22;989;53.016;8.346;2022-07-22T06:14:35;16.10;81.90
1978;DHT22;989;53.016;8.346;2022-07-22T06:17:03;16.30;75.60
1978;DHT22;989;53.016;8.346;2022-07-22T06:19:29;16.40;75.90
1978;DHT22;989;53.016;8.346;2022-07-22T06:21:58;16.30;64.80
1978;DHT22;989;53.016;8.346;2022-07-22T06:24:24;16.40;55.60
1978;DHT22;989;53.016;8.346;2022-07-22T06:26:50;16.30;50.60
1978;DHT22;989;53.016;8.346;2022-07-22T06:29:17;16.50;50.40
1978;DHT22;989;53.016;8.346;2022-07-22T06:31:43;16.60;39.50
1978;DHT22;989;53.016;8.346;2022-07-22T06:34:09;16.40;31.40
1978;DHT22;989;53.016;8.346;2022-07-22T06:36:35;16.40;42.30
1978;DHT22;989;53.016;8.346;2022-07-22T06:39:01;16.50;40.70
1978;DHT22;989;53.016;8.346;2022-07-22T06:41:27;16.60;40.30
1978;DHT22;989;53.016;8.346;2022-07-22T06:43:53;16.70;42.00
1978;DHT22;989;53.016;8.346;2022-07-22T06:46:19;16.60;41.90
1978;DHT22;989;53.016;8.346;2022-07-22T06:48:45;16.20;43.70
1978;DHT22;989;53.016;8.346;2022-07-22T06:51:11;16.20;45.80
1978;DHT22;989;53.016;8.346;2022-07-22T06:53:38;16.30;47.30
1978;DHT22;989;53.016;8.346;2022-07-22T06:56:04;16.40;34.50
1978;DHT22;989;53.016;8.346;2022-07-22T06:58:30;16.40;36.20
1978;DHT22;989;53.016;8.346;2022-07-22T07:00:56;16.40;35.00
1978;DHT22;989;53.016;8.346;2022-07-22T07:03:22;16.20;35.10
1978;DHT22;989;53.016;8.346;2022-07-22T07:05:52;16.40;37.70
1978;DHT22;989;53.016;8.346;2022-07-22T07:08:18;16.60;36.60
1978;DHT22;989;53.016;8.346;2022-07-22T07:10:44;16.60;36.40
1978;DHT22;989;53.016;8.346;2022-07-22T07:13:10;17.00;35.90
1978;DHT22;989;53.016;8.346;2022-07-22T07:15:36;17.40;15.20
1978;DHT22;989;53.016;8.346;2022-07-22T07:18:02;17.70;17.80
1978;DHT22;989;53.016;8.346;2022-07-22T07:20:28;17.90;13.80
1978;DHT22;989;53.016;8.346;2022-07-22T07:22:54;17.80;9.40
1978;DHT22;989;53.016;8.346;2022-07-22T07:25:21;17.80;10.00
1978;DHT22;989;53.016;8.346;2022-07-22T07:27:47;17.60;4.70
1978;DHT22;989;53.016;8.346;2022-07-22T07:30:13;17.70;8.10
1978;DHT22;989;53.016;8.346;2022-07-22T07:32:39;17.80;1.50
1978;DHT22;989;53.016;8.346;2022-07-22T07:35:06;18.00;1.00
1978;DHT22;989;53.016;8.346;2022-07-22T07:37:33;17.90;1.00
1978;DHT22;989;53.016;8.346;2022-07-22T07:39:59;18.20;1.00
1978;DHT22;989;53.016;8.346;2022-07-22T07:42:25;18.40;1.00
1978;DHT22;989;53.016;8.346;2022-07-22T07:44:51;18.40;1.00
1978;DHT22;989;53.016;8.346;2022-07-22T07:47:19;18.20;1.00
1978;DHT22;989;53.016;8.346;2022-07-22T07:49:47;17.80;1.00
1978;DHT22;989;53.016;8.346;2022-07-22T07:52:15;17.70;2.80
1978;DHT22;989;53.016;8.346;2022-07-22T07:54:41;17.70;1.00
1978;DHT22;989;53.016;8.346;2022-07-22T07:57:09;17.50;1.40
1978;DHT22;989;53.016;8.346;2022-07-22T07:59:39;17.30;3.30
1978;DHT22;989;53.016;8.346;2022-07-22T08:02:06;17.30;5.30
1978;DHT22;989;53.016;8.346;2022-07-22T08:04:35;17.60;1.00
1978;DHT22;989;53.016;8.346;2022-07-22T08:07:02;17.70;5.00
1978;DHT22;989;53.016;8.346;2022-07-22T08:09:28;17.60;1.00
1978;DHT22;989;53.016;8.346;2022-07-22T08:11:55;17.50;1.00
1978;DHT22;989;53.016;8.346;2022-07-22T08:14:21;17.60;1.00
1978;DHT22;989;53.016;8.346;2022-07-22T08:16:47;17.80;1.00
1978;DHT22;989;53.016;8.346;2022-07-22T08:19:13;17.50;1.00
1978;DHT22;989;53.016;8.346;2022-07-22T08:21:39;17.60;1.00
1978;DHT22;989;53.016;8.346;2022-07-22T08:24:09;17.40;1.00
1978;DHT22;989;53.016;8.346;2022-07-22T08:26:35;17.30;1.00
1978;DHT22;989;53.016;8.346;2022-07-22T08:29:02;17.10;1.00
1978;DHT22;989;53.016;8.346;2022-07-22T08:31:28;17.20;1.40
1978;DHT22;989;53.016;8.346;2022-07-22T08:33:54;17.40;1.00
1978;DHT22;989;53.016;8.346;2022-07-22T08:36:20;17.50;1.00
1978;DHT22;989;53.016;8.346;2022-07-22T08:38:46;17.70;1.00
1978;DHT22;989;53.016;8.346;2022-07-22T08:41:13;18.00;1.00
1978;DHT22;989;53.016;8.346;2022-07-22T08:43:40;18.20;1.00
1978;DHT22;989;53.016;8.346;2022-07-22T08:46:08;18.50;1.00
1978;DHT22;989;53.016;8.346;2022-07-22T08:48:37;18.40;1.00
1978;DHT22;989;53.016;8.346;2022-07-22T08:51:03;18.50;1.00
1978;DHT22;989;53.016;8.346;2022-07-22T08:53:29;18.60;1.00
1978;DHT22;989;53.016;8.346;2022-07-22T08:55:55;18.90;1.00
1978;DHT22;989;53.016;8.346;2022-07-22T08:58:21;18.50;1.00
1978;DHT22;989;53.016;8.346;2022-07-22T09:01:07;18.90;1.00
1978;DHT22;989;53.016;8.346;2022-07-22T09:03:33;19.70;1.00
1978;DHT22;989;53.016;8.346;2022-07-22T09:06:09;19.30;1.00
1978;DHT22;989;53.016;8.346;2022-07-22T09:08:53;19.30;1.00
1978;DHT22;989;53.016;8.346;2022-07-22T09:11:21;18.90;1.00
1978;DHT22;989;53.016;8.346;2022-07-22T09:13:48;18.40;1.00
1978;DHT22;989;53.016;8.346;2022-07-22T09:16:14;18.60;1.00
1978;DHT22;989;53.016;8.346;2022-07-22T09:18:51;18.70;1.00
1978;DHT22;989;53.016;8.346;2022-07-22T09:21:17;18.70;1.00
1978;DHT22;989;53.016;8.346;2022-07-22T09:23:43;18.50;1.00
1978;DHT22;989;53.016;8.346;2022-07-22T09:26:30;18.40;1.00
1978;DHT22;989;53.016;8.346;2022-07-22T09:28:56;18.30;1.00
1978;DHT22;989;53.016;8.346;2022-07-22T09:31:25;18.20;1.00
1978;DHT22;989;53.016;8.346;2022-07-22T09:33:51;18.60;1.00
1978;DHT22;989;53.016;8.346;2022-07-22T09:36:19;18.90;1.00
1978;DHT22;989;53.016;8.346;2022-07-22T09:38:46;18.90;1.00
1978;DHT22;989;53.016;8.346;2022-07-22T09:41:12;19.20;1.00
1978;DHT22;989;53.016;8.346;2022-07-22T09:43:40;19.10;1.00
1978;DHT22;989;53.016;8.346;2022-07-22T09:46:06;18.70;1.00
1978;DHT22;989;53.016;8.346;2022-07-22T09:48:32;18.80;1.00
1978;DHT22;989;53.016;8.346;2022-07-22T09:50:58;18.60;1.00
1978;DHT22;989;53.016;8.346;2022-07-22T09:53:26;18.30;1.00
1978;DHT22;989;53.016;8.346;2022-07-22T09:56:05;18.10;1.00
1978;DHT22;989;53.016;8.346;2022-07-22T09:58:32;18.50;1.00
1978;DHT22;989;53.016;8.346;2022-07-22T10:01:02;18.60;1.00
1978;DHT22;989;53.016;8.346;2022-07-22T10:03:32;18.70;1.00
1978;DHT22;989;53.016;8.346;2022-07-22T10:05:59;18.60;1.00
1978;DHT22;989;53.016;8.346;2022-07-22T10:08:27;18.60;1.00
1978;DHT22;989;53.016;8.346;2022-07-22T10:10:58;18.60;1.00
1978;DHT22;989;53.016;8.346;2022-07-22T10:13:24;18.70;1.00
1978;DHT22;989;53.016;8.346;2022-07-22T10:15:50;18.60;1.00
1978;DHT22;989;53.016;8.346;2022-07-22T10:18:18;18.80;1.00
1978;DHT22;989;53.016;8.346;2022-07-22T10:20:45;19.10;1.00
1978;DHT22;989;53.016;8.346;2022-07-22T10:23:13;19.10;1.00
1978;DHT22;989;53.016;8.346;2022-07-22T10:28:43;19.80;1.00
1978;DHT22;989;53.016;8.346;2022-07-22T10:33:43;19.20;1.00
1978;DHT22;989;53.016;8.346;2022-07-22T10:36:09;19.70;1.00
1978;DHT22;989;53.016;8.346;2022-07-22T10:38:36;19.40;1.00
1978;DHT22;989;53.016;8.346;2022-07-22T10:41:04;19.60;1.00
1978;DHT22;989;53.016;8.346;2022-07-22T10:43:46;19.80;1.00
1978;DHT22;989;53.016;8.346;2022-07-22T10:46:12;20.40;1.00
1978;DHT22;989;53.016;8.346;2022-07-22T10:51:09;20.00;1.00
1978;DHT22;989;53.016;8.346;2022-07-22T10:53:45;20.00;1.00
1978;DHT22;989;53.016;8.346;2022-07-22T10:56:13;19.80;1.00
1978;DHT22;989;53.016;8.346;2022-07-22T10:58:41;19.70;1.00
1978;DHT22;989;53.016;8.346;2022-07-22T11:01:10;19.50;1.00
1978;DHT22;989;53.016;8.346;2022-07-22T11:03:38;19.20;1.00
1978;DHT22;989;53.016;8.346;2022-07-22T11:08:45;19.20;1.00
1978;DHT22;989;53.016;8.346;2022-07-22T11:11:11;19.40;1.00
1978;DHT22;989;53.016;8.346;2022-07-22T11:13:39;19.20;1.00
1978;DHT22;989;53.016;8.346;2022-07-22T11:16:16;19.60;1.00
1978;DHT22;989;53.016;8.346;2022-07-22T11:18:57;19.70;1.00
1978;DHT22;989;53.016;8.346;2022-07-22T11:21:26;19.80;1.00
1978;DHT22;989;53.016;8.346;2022-07-22T11:23:57;20.20;1.00
1978;DHT22;989;53.016;8.346;2022-07-22T11:26:49;20.00;1.00
1978;DHT22;989;53.016;8.346;2022-07-22T11:31:54;19.60;1.00
1978;DHT22;989;53.016;8.346;2022-07-22T11:34:20;19.40;1.00
1978;DHT22;989;53.016;8.346;2022-07-22T11:36:48;20.10;1.00
1978;DHT22;989;53.016;8.346;2022-07-22T11:39:19;20.70;1.00
1978;DHT22;989;53.016;8.346;2022-07-22T11:41:45;21.10;1.00
1978;DHT22;989;53.016;8.346;2022-07-22T11:44:11;20.50;1.00
1978;DHT22;989;53.016;8.346;2022-07-22T11:46:40;20.40;1.00
1978;DHT22;989;53.016;8.346;2022-07-22T11:49:07;20.70;1.00
1978;DHT22;989;53.016;8.346;2022-07-22T11:51:36;20.90;1.00
1978;DHT22;989;53.016;8.346;2022-07-22T11:54:04;20.50;1.00
1978;DHT22;989;53.016;8.346;2022-07-22T11:56:30;19.90;1.00
1978;DHT22;989;53.016;8.346;2022-07-22T11:58:57;19.90;1.00
1978;DHT22;989;53.016;8.346;2022-07-22T12:01:28;19.60;1.00
1978;DHT22;989;53.016;8.346;2022-07-22T12:03:57;19.70;1.00
1978;DHT22;989;53.016;8.346;2022-07-22T12:06:24;19.90;1.00
1978;DHT22;989;53.016;8.346;2022-07-22T12:08:53;19.70;1.00
1978;DHT22;989;53.016;8.346;2022-07-22T12:11:22;20.10;1.00
1978;DHT22;989;53.016;8.346;2022-07-22T12:13:50;19.80;1.00
1978;DHT22;989;53.016;8.346;2022-07-22T12:16:23;20.00;1.00
1978;DHT22;989;53.016;8.346;2022-07-22T12:19:08;20.00;1.00
1978;DHT22;989;53.016;8.346;2022-07-22T12:21:56;20.10;1.00
1978;DHT22;989;53.016;8.346;2022-07-22T12:24:28;20.30;1.00
1978;DHT22;989;53.016;8.346;2022-07-22T12:26:56;20.20;1.00
1978;DHT22;989;53.016;8.346;2022-07-22T12:31:54;19.70;1.00
1978;DHT22;989;53.016;8.346;2022-07-22T12:36:56;19.30;1.00
1978;DHT22;989;53.016;8.346;2022-07-22T12:39:22;19.30;1.00
1978;DHT22;989;53.016;8.346;2022-07-22T12:41:51;19.20;1.00
1978;DHT22;989;53.016;8.346;2022-07-22T12:44:19;19.10;1.00
1978;DHT22;989;53.016;8.346;2022-07-22T12:46:47;19.20;1.00
1978;DHT22;989;53.016;8.346;2022-07-22T12:49:16;19.50;1.00
1978;DHT22;989;53.016;8.346;2022-07-22T12:52:03;19.60;1.00
1978;DHT22;989;53.016;8.346;2022-07-22T12:54:28;19.30;1.00
1978;DHT22;989;53.016;8.346;2022-07-22T12:56:55;19.70;1.00
1978;DHT22;989;53.016;8.346;2022-07-22T12:59:21;19.60;1.00
1978;DHT22;989;53.016;8.346;2022-07-22T13:01:47;19.40;1.00
1978;DHT22;989;53.016;8.346;2022-07-22T13:04:15;19.40;1.00
1978;DHT22;989;53.016;8.346;2022-07-22T13:06:41;19.20;1.00
1978;DHT22;989;53.016;8.346;2022-07-22T13:09:07;19.20;1.00
1978;DHT22;989;53.016;8.346;2022-07-22T13:11:33;19.00;1.00
1978;DHT22;989;53.016;8.346;2022-07-22T13:14:06;19.20;1.00
1978;DHT22;989;53.016;8.346;2022-07-22T13:16:32;19.40;1.00
1978;DHT22;989;53.016;8.346;2022-07-22T13:18:59;19.60;1.00
1978;DHT22;989;53.016;8.346;2022-07-22T13:21:25;19.50;1.00
1978;DHT22;989;53.016;8.346;2022-07-22T13:23:51;19.40;1.00
1978;DHT22;989;53.016;8.346;2022-07-22T13:26:17;19.70;1.00
1978;DHT22;989;53.016;8.346;2022-07-22T13:28:43;19.80;1.00
1978;DHT22;989;53.016;8.346;2022-07-22T13:31:09;19.80;1.00
1978;DHT22;989;53.016;8.346;2022-07-22T13:33:35;19.60;1.00
1978;DHT22;989;53.016;8.346;2022-07-22T13:36:02;19.80;1.00
1978;DHT22;989;53.016;8.346;2022-07-22T13:38:29;20.20;1.00
1978;DHT22;989;53.016;8.346;2022-07-22T13:40:55;19.90;1.00
1978;DHT22;989;53.016;8.346;2022-07-22T13:43:23;19.70;1.00
1978;DHT22;989;53.016;8.346;2022-07-22T13:45:51;19.50;1.00
1978;DHT22;989;53.016;8.346;2022-07-22T13:48:17;19.60;1.00
1978;DHT22;989;53.016;8.346;2022-07-22T13:50:45;20.10;1.00
1978;DHT22;989;53.016;8.346;2022-07-22T13:53:11;20.30;1.00
1978;DHT22;989;53.016;8.346;2022-07-22T13:55:41;20.60;1.00
1978;DHT22;989;53.016;8.346;2022-07-22T13:58:07;21.10;1.00
1978;DHT22;989;53.016;8.346;2022-07-22T14:00:33;21.20;1.00
1978;DHT22;989;53.016;8.346;2022-07-22T14:02:59;20.80;1.00
1978;DHT22;989;53.016;8.346;2022-07-22T14:05:25;20.60;1.00
1978;DHT22;989;53.016;8.346;2022-07-22T14:07:51;20.40;1.00
1978;DHT22;989;53.016;8.346;2022-07-22T14:10:18;20.30;1.00
1978;DHT22;989;53.016;8.346;2022-07-22T14:12:44;20.50;1.00
1978;DHT22;989;53.016;8.346;2022-07-22T14:15:10;20.80;1.00
1978;DHT22;989;53.016;8.346;2022-07-22T14:17:36;20.90;1.00
1978;DHT22;989;53.016;8.346;2022-07-22T14:20:03;21.30;1.00
1978;DHT22;989;53.016;8.346;2022-07-22T14:22:30;21.60;1.00
1978;DHT22;989;53.016;8.346;2022-07-22T14:24:56;21.20;1.00
1978;DHT22;989;53.016;8.346;2022-07-22T14:27:22;20.70;1.00
1978;DHT22;989;53.016;8.346;2022-07-22T14:29:48;20.20;1.00
1978;DHT22;989;53.016;8.346;2022-07-22T14:32:14;20.00;1.00
1978;DHT22;989;53.016;8.346;2022-07-22T14:34:41;20.00;1.00
1978;DHT22;989;53.016;8.346;2022-07-22T14:37:07;19.80;1.00
1978;DHT22;989;53.016;8.346;2022-07-22T14:39:34;19.80;1.00
1978;DHT22;989;53.016;8.346;2022-07-22T14:42:00;19.70;1.00
1978;DHT22;989;53.016;8.346;2022-07-22T14:44:26;19.90;1.00
1978;DHT22;989;53.016;8.346;2022-07-22T14:46:52;20.00;1.00
1978;DHT22;989;53.016;8.346;2022-07-22T14:49:18;19.60;1.00
1978;DHT22;989;53.016;8.346;2022-07-22T14:51:45;19.40;1.00
1978;DHT22;989;53.016;8.346;2022-07-22T14:54:11;19.20;1.00
1978;DHT22;989;53.016;8.346;2022-07-22T14:56:38;19.50;1.00
1978;DHT22;989;53.016;8.346;2022-07-22T14:59:05;19.70;1.00
1978;DHT22;989;53.016;8.346;2022-07-22T15:01:31;19.70;1.00
1978;DHT22;989;53.016;8.346;2022-07-22T15:03:57;19.70;1.00
1978;DHT22;989;53.016;8.346;2022-07-22T15:06:23;19.70;1.00
1978;DHT22;989;53.016;8.346;2022-07-22T15:08:50;19.80;1.00
1978;DHT22;989;53.016;8.346;2022-07-22T15:11:16;19.80;1.00
1978;DHT22;989;53.016;8.346;2022-07-22T15:13:42;19.90;1.00
1978;DHT22;989;53.016;8.346;2022-07-22T15:16:09;19.70;1.00
1978;DHT22;989;53.016;8.346;2022-07-22T15:18:36;19.80;1.00
1978;DHT22;989;53.016;8.346;2022-07-22T15:21:02;19.40;1.00
1978;DHT22;989;53.016;8.346;2022-07-22T15:23:28;19.30;1.00
1978;DHT22;989;53.016;8.346;2022-07-22T15:25:59;19.10;1.00
1978;DHT22;989;53.016;8.346;2022-07-22T15:28:26;19.10;1.00
1978;DHT22;989;53.016;8.346;2022-07-22T15:30:52;19.10;1.00
1978;DHT22;989;53.016;8.346;2022-07-22T15:33:18;19.20;1.00
1978;DHT22;989;53.016;8.346;2022-07-22T15:35:47;19.20;1.00
1978;DHT22;989;53.016;8.346;2022-07-22T15:38:13;19.10;1.00
1978;DHT22;989;53.016;8.346;2022-07-22T15:40:40;19.10;1.00
1978;DHT22;989;53.016;8.346;2022-07-22T15:43:06;19.10;1.00
1978;DHT22;989;53.016;8.346;2022-07-22T15:45:32;19.10;1.00
1978;DHT22;989;53.016;8.346;2022-07-22T15:48:01;19.20;1.00
1978;DHT22;989;53.016;8.346;2022-07-22T15:50:27;19.30;1.00
1978;DHT22;989;53.016;8.346;2022-07-22T15:52:53;19.30;1.00
1978;DHT22;989;53.016;8.346;2022-07-22T15:55:20;19.30;1.00
1978;DHT22;989;53.016;8.346;2022-07-22T15:57:46;19.20;1.00
1978;DHT22;989;53.016;8.346;2022-07-22T16:00:31;19.10;1.00
1978;DHT22;989;53.016;8.346;2022-07-22T16:02:57;19.00;1.00
1978;DHT22;989;53.016;8.346;2022-07-22T16:05:24;18.90;1.00
1978;DHT22;989;53.016;8.346;2022-07-22T16:07:50;18.70;1.00
1978;DHT22;989;53.016;8.346;2022-07-22T16:10:17;18.80;1.00
1978;DHT22;989;53.016;8.346;2022-07-22T16:12:43;18.70;1.00
1978;DHT22;989;53.016;8.346;2022-07-22T16:15:09;18.70;1.00
1978;DHT22;989;53.016;8.346;2022-07-22T16:17:35;18.70;1.00
1978;DHT22;989;53.016;8.346;2022-07-22T16:20:01;18.60;1.00
1978;DHT22;989;53.016;8.346;2022-07-22T16:22:27;18.70;1.00
1978;DHT22;989;53.016;8.346;2022-07-22T16:24:53;18.80;1.00
1978;DHT22;989;53.016;8.346;2022-07-22T16:27:19;18.70;1.00
1978;DHT22;989;53.016;8.346;2022-07-22T16:29:45;18.70;1.00
1978;DHT22;989;53.016;8.346;2022-07-22T16:32:11;18.70;1.00
1978;DHT22;989;53.016;8.346;2022-07-22T16:34:37;18.60;1.00
1978;DHT22;989;53.016;8.346;2022-07-22T16:37:03;18.60;1.00
1978;DHT22;989;53.016;8.346;2022-07-22T16:39:29;18.70;1.00
1978;DHT22;989;53.016;8.346;2022-07-22T16:41:55;18.70;1.00
1978;DHT22;989;53.016;8.346;2022-07-22T16:44:21;18.70;1.00